CCA4656 ZUTF-ZSAM
Flight info
| Callsign | CCA4656 |
|---|---|
| Flight time | N/A |
| Altitude | 31100 |
| Route | ATVAX9C ATVAX W234 NIXID B330 QP G586 WYN DCT MABAG DCT XEBUL DCT NUVGA DCT VETIB W155 TEBON TEBON8X |
| Aircraft | B738/M-SDE2E3FGHIRWXY/LB1 |
Departure
| Time | 2026-05-04 06:00 |
|---|---|
| Airport | Chengdu Tianfu International Airport (ZUTF) |
Arrival
| Time | N/A |
|---|---|
| Airport | Xiamen Gaoqi International Airport (ZSAM) |
| Time | Latitude | Longitude | Altitude | Speed | Heading |
|---|---|---|---|---|---|
| 2026-05-04 05:42 | 30.31163 | 104.43759 | 1460 ft | 0 kts | 111° |
| 2026-05-04 05:47 | 30.31193 | 104.43671 | 1459 ft | 1 kts | 111° |
| 2026-05-04 05:47 | 30.31198 | 104.43656 | 1459 ft | 2 kts | 111° |
| 2026-05-04 05:47 | 30.31203 | 104.43641 | 1459 ft | 2 kts | 116° |
| 2026-05-04 05:48 | 30.31212 | 104.43629 | 1459 ft | 2 kts | 144° |
| 2026-05-04 05:48 | 30.31227 | 104.43621 | 1459 ft | 2 kts | 172° |
| 2026-05-04 05:48 | 30.31239 | 104.43621 | 1459 ft | 0 kts | 191° |
| 2026-05-04 05:48 | 30.31246 | 104.43623 | 1459 ft | 1 kts | 195° |
| 2026-05-04 05:49 | 30.31247 | 104.43623 | 1459 ft | 0 kts | 194° |
| 2026-05-04 05:51 | 30.31124 | 104.43571 | 1459 ft | 8 kts | 203° |
| 2026-05-04 05:51 | 30.31039 | 104.43528 | 1459 ft | 15 kts | 202° |
| 2026-05-04 05:52 | 30.30944 | 104.43484 | 1459 ft | 14 kts | 201° |
| 2026-05-04 05:52 | 30.30869 | 104.43434 | 1459 ft | 9 kts | 270° |
| 2026-05-04 05:52 | 30.30888 | 104.43349 | 1459 ft | 11 kts | 291° |
| 2026-05-04 05:52 | 30.30919 | 104.43263 | 1459 ft | 12 kts | 291° |
| 2026-05-04 05:53 | 30.30955 | 104.43160 | 1459 ft | 15 kts | 291° |
| 2026-05-04 05:54 | 30.30433 | 104.42620 | 1459 ft | 17 kts | 204° |
| 2026-05-04 05:55 | 30.30328 | 104.42567 | 1459 ft | 16 kts | 202° |
| 2026-05-04 05:55 | 30.30222 | 104.42517 | 1460 ft | 16 kts | 201° |
| 2026-05-04 05:55 | 30.30105 | 104.42462 | 1460 ft | 18 kts | 201° |
| 2026-05-04 05:55 | 30.29977 | 104.42401 | 1460 ft | 21 kts | 203° |
| 2026-05-04 05:56 | 30.29841 | 104.42338 | 1460 ft | 20 kts | 202° |
| 2026-05-04 05:56 | 30.29738 | 104.42290 | 1459 ft | 19 kts | 201° |
| 2026-05-04 05:56 | 30.29599 | 104.42224 | 1460 ft | 19 kts | 201° |
| 2026-05-04 05:56 | 30.29472 | 104.42166 | 1460 ft | 19 kts | 203° |
| 2026-05-04 05:57 | 30.29338 | 104.42101 | 1460 ft | 22 kts | 202° |
| 2026-05-04 05:57 | 30.29196 | 104.42033 | 1460 ft | 21 kts | 202° |
| 2026-05-04 05:57 | 30.29064 | 104.41970 | 1460 ft | 18 kts | 202° |
| 2026-05-04 05:57 | 30.29009 | 104.41882 | 1460 ft | 8 kts | 289° |
| 2026-05-04 05:58 | 30.29018 | 104.41855 | 1459 ft | 1 kts | 291° |
| 2026-05-04 05:58 | 30.29019 | 104.41853 | 1459 ft | 0 kts | 291° |
| 2026-05-04 05:58 | 30.29028 | 104.41827 | 1460 ft | 11 kts | 294° |
| 2026-05-04 05:58 | 30.29126 | 104.41788 | 1460 ft | 18 kts | 22° |
| 2026-05-04 05:59 | 30.29253 | 104.41847 | 1460 ft | 26 kts | 21° |
| 2026-05-04 05:59 | 30.29579 | 104.42002 | 1460 ft | 82 kts | 20° |
| 2026-05-04 05:59 | 30.30301 | 104.42342 | 1460 ft | 140 kts | 22° |
| 2026-05-04 05:59 | 30.31360 | 104.42841 | 1504 ft | 182 kts | 24° |
| 2026-05-04 06:00 | 30.32573 | 104.43381 | 2010 ft | 188 kts | 23° |
| 2026-05-04 06:00 | 30.33779 | 104.43778 | 2813 ft | 180 kts | 11° |
| 2026-05-04 06:00 | 30.35095 | 104.43910 | 3144 ft | 193 kts | 5° |
| 2026-05-04 06:00 | 30.36433 | 104.44029 | 3393 ft | 204 kts | 7° |
| 2026-05-04 06:01 | 30.37858 | 104.44233 | 3611 ft | 217 kts | 9° |
| 2026-05-04 06:01 | 30.39445 | 104.44487 | 3800 ft | 235 kts | 9° |
| 2026-05-04 06:03 | 30.52076 | 104.46833 | 6637 ft | 287 kts | 13° |
| 2026-05-04 06:03 | 30.54024 | 104.47336 | 7220 ft | 289 kts | 12° |
| 2026-05-04 06:05 | 30.66642 | 104.54694 | 10725 ft | 330 kts | 50° |
| 2026-05-04 06:05 | 30.69637 | 104.59068 | 11235 ft | 359 kts | 50° |
| 2026-05-04 06:05 | 30.71250 | 104.61385 | 11470 ft | 374 kts | 49° |
| 2026-05-04 06:06 | 30.72825 | 104.63872 | 11662 ft | 389 kts | 58° |
| 2026-05-04 06:06 | 30.73889 | 104.66788 | 11832 ft | 404 kts | 74° |
| 2026-05-04 06:06 | 30.74301 | 104.70088 | 12071 ft | 416 kts | 89° |
| 2026-05-04 06:06 | 30.74081 | 104.73489 | 12579 ft | 419 kts | 99° |
| 2026-05-04 06:07 | 30.73419 | 104.76754 | 13073 ft | 423 kts | 109° |
| 2026-05-04 06:07 | 30.72119 | 104.79744 | 13584 ft | 426 kts | 125° |
| 2026-05-04 06:07 | 30.70177 | 104.82246 | 14072 ft | 429 kts | 140° |
| 2026-05-04 06:07 | 30.67142 | 104.84557 | 14711 ft | 432 kts | 154° |
| 2026-05-04 06:08 | 30.64546 | 104.85805 | 15271 ft | 433 kts | 164° |
| 2026-05-04 06:08 | 30.61503 | 104.86383 | 15801 ft | 434 kts | 181° |
| 2026-05-04 06:08 | 30.58447 | 104.86096 | 16388 ft | 435 kts | 189° |
| 2026-05-04 06:08 | 30.55401 | 104.85552 | 16911 ft | 439 kts | 191° |
| 2026-05-04 06:09 | 30.52372 | 104.84936 | 17449 ft | 442 kts | 192° |
| 2026-05-04 06:09 | 30.49325 | 104.84300 | 17993 ft | 445 kts | 192° |
| 2026-05-04 06:11 | 30.27214 | 104.80003 | 21426 ft | 471 kts | 193° |
| 2026-05-04 06:11 | 30.23966 | 104.79397 | 21924 ft | 474 kts | 194° |
| 2026-05-04 06:13 | 30.00662 | 104.75285 | 24763 ft | 499 kts | 189° |
| 2026-05-04 06:14 | 29.80418 | 104.82339 | 27412 ft | 525 kts | 156° |
| 2026-05-04 06:14 | 29.77219 | 104.84429 | 27830 ft | 526 kts | 155° |
| 2026-05-04 06:15 | 29.74079 | 104.86541 | 28195 ft | 526 kts | 154° |
| 2026-05-04 06:15 | 29.70892 | 104.88703 | 28570 ft | 527 kts | 154° |
| 2026-05-04 06:15 | 29.64596 | 104.92941 | 28761 ft | 539 kts | 155° |
| 2026-05-04 06:16 | 29.61352 | 104.95094 | 28934 ft | 543 kts | 155° |
| 2026-05-04 06:16 | 29.58099 | 104.97239 | 29191 ft | 544 kts | 155° |
| 2026-05-04 06:16 | 29.54844 | 104.99362 | 29488 ft | 543 kts | 156° |
| 2026-05-04 06:16 | 29.51593 | 105.01395 | 29815 ft | 539 kts | 159° |
| 2026-05-04 06:17 | 29.48165 | 105.03235 | 30104 ft | 535 kts | 163° |
| 2026-05-04 06:17 | 29.44782 | 105.04777 | 30386 ft | 532 kts | 166° |
| 2026-05-04 06:17 | 29.41402 | 105.06149 | 30612 ft | 530 kts | 168° |
| 2026-05-04 06:17 | 29.38018 | 105.07430 | 30837 ft | 530 kts | 168° |
| 2026-05-04 06:18 | 29.34503 | 105.08715 | 31069 ft | 529 kts | 169° |
| 2026-05-04 06:18 | 29.31005 | 105.09983 | 31115 ft | 529 kts | 169° |
| 2026-05-04 06:20 | 29.03096 | 105.20434 | 31113 ft | 527 kts | 168° |
| 2026-05-04 06:21 | 28.85598 | 105.27104 | 31121 ft | 523 kts | 168° |
| 2026-05-04 06:22 | 28.78654 | 105.29743 | 31124 ft | 523 kts | 169° |
| 2026-05-04 06:25 | 28.30160 | 105.48050 | 31224 ft | 519 kts | 169° |
| 2026-05-04 06:26 | 28.23263 | 105.50635 | 31239 ft | 518 kts | 169° |
| 2026-05-04 06:26 | 28.16343 | 105.53228 | 31239 ft | 517 kts | 169° |
| 2026-05-04 06:27 | 27.99130 | 105.58568 | 31233 ft | 503 kts | 179° |
| 2026-05-04 06:28 | 27.92171 | 105.59682 | 31236 ft | 501 kts | 181° |
| 2026-05-04 06:28 | 27.85235 | 105.60666 | 31236 ft | 503 kts | 180° |
| 2026-05-04 06:29 | 27.78320 | 105.62619 | 31225 ft | 518 kts | 166° |
| 2026-05-04 06:29 | 27.71676 | 105.66047 | 31224 ft | 524 kts | 160° |
| 2026-05-04 06:30 | 27.65204 | 105.69955 | 31244 ft | 525 kts | 159° |
| 2026-05-04 06:30 | 27.58777 | 105.73646 | 31258 ft | 523 kts | 161° |
| 2026-05-04 06:31 | 27.52148 | 105.77253 | 31270 ft | 523 kts | 162° |
| 2026-05-04 06:31 | 27.45519 | 105.80798 | 31285 ft | 522 kts | 162° |
| 2026-05-04 06:33 | 27.19147 | 105.94929 | 31286 ft | 521 kts | 162° |
| 2026-05-04 06:34 | 27.12563 | 105.98460 | 31292 ft | 522 kts | 161° |
| 2026-05-04 06:34 | 27.06204 | 106.02494 | 31274 ft | 532 kts | 150° |
| 2026-05-04 06:36 | 26.86732 | 106.28634 | 31270 ft | 547 kts | 130° |
| 2026-05-04 06:37 | 26.82165 | 106.35522 | 31281 ft | 548 kts | 130° |
| 2026-05-04 06:37 | 26.77586 | 106.42335 | 31273 ft | 547 kts | 131° |
| 2026-05-04 06:38 | 26.72959 | 106.49165 | 31283 ft | 546 kts | 131° |
| 2026-05-04 06:40 | 26.54638 | 106.76464 | 31285 ft | 551 kts | 126° |
| 2026-05-04 06:40 | 26.51146 | 106.84148 | 31285 ft | 555 kts | 115° |
| 2026-05-04 06:41 | 26.48537 | 106.92316 | 31276 ft | 557 kts | 109° |
| 2026-05-04 06:41 | 26.46355 | 107.00506 | 31277 ft | 558 kts | 108° |
| 2026-05-04 06:42 | 26.44237 | 107.08825 | 31272 ft | 558 kts | 108° |
| 2026-05-04 06:44 | 26.35582 | 107.42271 | 31245 ft | 558 kts | 109° |
| 2026-05-04 06:44 | 26.33388 | 107.50532 | 31238 ft | 558 kts | 108° |
| 2026-05-04 06:45 | 26.31176 | 107.58851 | 31232 ft | 558 kts | 109° |
| 2026-05-04 06:45 | 26.28948 | 107.67215 | 31233 ft | 557 kts | 109° |
| 2026-05-04 06:46 | 26.26712 | 107.75582 | 31233 ft | 558 kts | 109° |
| 2026-05-04 06:46 | 26.24483 | 107.83906 | 31230 ft | 558 kts | 109° |
| 2026-05-04 06:48 | 26.15679 | 108.17061 | 31221 ft | 558 kts | 109° |
| 2026-05-04 06:50 | 26.06855 | 108.50189 | 31186 ft | 558 kts | 109° |
| 2026-05-04 06:51 | 26.04656 | 108.58499 | 31190 ft | 557 kts | 109° |
| 2026-05-04 06:51 | 26.02453 | 108.66814 | 31190 ft | 557 kts | 110° |
| 2026-05-04 06:52 | 26.00249 | 108.75105 | 31193 ft | 557 kts | 110° |
| 2026-05-04 06:52 | 25.98050 | 108.83402 | 31189 ft | 558 kts | 110° |
| 2026-05-04 06:53 | 25.95844 | 108.91736 | 31182 ft | 558 kts | 110° |
| 2026-05-04 06:53 | 25.93638 | 109.00059 | 31172 ft | 557 kts | 110° |
| 2026-05-04 06:54 | 25.91443 | 109.08320 | 31171 ft | 560 kts | 110° |
| 2026-05-04 06:54 | 25.89258 | 109.16660 | 31171 ft | 558 kts | 109° |
| 2026-05-04 06:55 | 25.87110 | 109.24925 | 31171 ft | 557 kts | 109° |
| 2026-05-04 06:55 | 25.84955 | 109.33191 | 31169 ft | 559 kts | 110° |
| 2026-05-04 06:57 | 25.74042 | 109.64843 | 31162 ft | 535 kts | 138° |
| 2026-05-04 06:58 | 25.68867 | 109.70704 | 31166 ft | 527 kts | 144° |
| 2026-05-04 06:58 | 25.63476 | 109.76281 | 31177 ft | 529 kts | 144° |
| 2026-05-04 06:59 | 25.58087 | 109.81799 | 31185 ft | 527 kts | 144° |
| 2026-05-04 06:59 | 25.52749 | 109.87315 | 31188 ft | 527 kts | 144° |
| 2026-05-04 07:01 | 25.31416 | 110.09690 | 31155 ft | 524 kts | 144° |
| 2026-05-04 07:02 | 25.26100 | 110.15260 | 31149 ft | 526 kts | 144° |
| 2026-05-04 07:02 | 25.20826 | 110.20785 | 31149 ft | 525 kts | 144° |
| 2026-05-04 07:03 | 25.15524 | 110.26360 | 31142 ft | 525 kts | 144° |
| 2026-05-04 07:03 | 25.10241 | 110.31956 | 31146 ft | 524 kts | 143° |
| 2026-05-04 07:04 | 25.04951 | 110.37559 | 31150 ft | 526 kts | 143° |
| 2026-05-04 07:04 | 24.99685 | 110.43130 | 31159 ft | 523 kts | 143° |
| 2026-05-04 07:05 | 24.94451 | 110.48669 | 31161 ft | 524 kts | 143° |
| 2026-05-04 07:05 | 24.89168 | 110.54253 | 31161 ft | 524 kts | 143° |
| 2026-05-04 07:06 | 24.81309 | 110.62549 | 31156 ft | 522 kts | 143° |
| 2026-05-04 07:07 | 24.76050 | 110.68088 | 31151 ft | 520 kts | 144° |
| 2026-05-04 07:08 | 24.65257 | 110.93739 | 31171 ft | 557 kts | 99° |
| 2026-05-04 07:09 | 24.64866 | 110.97955 | 31174 ft | 557 kts | 98° |
| 2026-05-04 07:09 | 24.64282 | 111.06545 | 31174 ft | 559 kts | 96° |
| 2026-05-04 07:10 | 24.63719 | 111.15061 | 31168 ft | 558 kts | 97° |
| 2026-05-04 07:12 | 24.60823 | 111.49081 | 31155 ft | 555 kts | 99° |
| 2026-05-04 07:12 | 24.60047 | 111.57543 | 31162 ft | 557 kts | 98° |
| 2026-05-04 07:13 | 24.59269 | 111.66037 | 31172 ft | 556 kts | 99° |
| 2026-05-04 07:13 | 24.58496 | 111.74480 | 31178 ft | 555 kts | 99° |
| 2026-05-04 07:14 | 24.56702 | 111.93848 | 31194 ft | 555 kts | 99° |
| 2026-05-04 07:15 | 24.55472 | 112.06998 | 31196 ft | 554 kts | 99° |
| 2026-05-04 07:16 | 24.54751 | 112.14653 | 31191 ft | 556 kts | 99° |